Aviation Digital Data Service (ADDS)

Output produced by METARs form (1525 UTC 23 January 2019)
found at http://www.aviationweather.gov/metar/data/
 
Forecast for: UUMO (OSTAFYEVO INTL , RU)
Text: TAF UUMO 231354Z 2315/2324 VRB02MPS 7000 NSC
Forecast period: 1500 UTC 23 January 2019 to 0000 UTC 24 January 2019
Forecast type: FROM: standard forecast or significant change
Winds: variable direction winds at 5 MPH (4 knots; 2.1 m/s)
Visibility: 4 miles (7 km)
Ceiling: unknown
Clouds: missing
Weather: no significant weather forecast for this period
Text: TEMPO 2316/2318 2000 BR SCT004
Forecast period: 1600 to 1800 UTC 23 January 2019
Forecast type: TEMPORARY: The following changes expected for less than half the time period
Visibility: 1.24 miles (2.00 km)
Ceiling: at least 12,000 feet AGL
Clouds: scattered clouds at 400 feet AGL
Weather: BR  (mist)
Text: TEMPO 2318/2324 0300 FZFG BKN002
Forecast period: 1800 UTC 23 January 2019 to 0000 UTC 24 January 2019
Forecast type: TEMPORARY: The following changes expected for less than half the time period
Visibility: 0.19 miles (0.31 km)
Ceiling: 200 feet AGL
Clouds: broken clouds at 200 feet AGL
Weather: FZFG  (freezing fog)